createdAt,value
2023-01-27T00:04:26.560Z,6.1
2023-01-27T00:10:02.968Z,6.1
2023-01-27T00:15:38.092Z,6.1
2023-01-27T00:21:13.866Z,6.1
2023-01-27T00:26:48.754Z,6.1
2023-01-27T00:32:23.975Z,6.1
2023-01-27T00:37:59.633Z,6.1
2023-01-27T00:43:36.555Z,6
2023-01-27T00:49:11.652Z,6.1
2023-01-27T00:55:01.355Z,6
2023-01-27T01:00:45.470Z,6
2023-01-27T01:06:31.987Z,5.9
2023-01-27T01:12:10.572Z,5.9
2023-01-27T01:17:45.588Z,5.8
2023-01-27T01:23:22.152Z,5.8
2023-01-27T01:28:57.611Z,5.8
2023-01-27T01:34:33.975Z,5.8
2023-01-27T01:40:35.292Z,5.9
2023-01-27T01:46:12.840Z,5.9
2023-01-27T01:51:50.337Z,5.9
2023-01-27T01:57:26.759Z,6
2023-01-27T02:03:02.107Z,6
2023-01-27T02:08:37.584Z,6
2023-01-27T02:14:37.397Z,6
2023-01-27T02:20:33.759Z,6
2023-01-27T02:27:00.690Z,6
2023-01-27T02:32:56.770Z,6.1
2023-01-27T02:38:31.730Z,6
2023-01-27T02:44:07.125Z,6
2023-01-27T02:49:42.272Z,6.1
2023-01-27T02:55:27.477Z,6.1
2023-01-27T03:01:04.250Z,6
2023-01-27T03:06:41.435Z,6
2023-01-27T03:12:16.981Z,6
2023-01-27T03:17:53.381Z,6
2023-01-27T03:23:29.134Z,6
2023-01-27T03:29:04.694Z,6
2023-01-27T03:34:42.516Z,6.1
2023-01-27T03:40:17.525Z,6.1
2023-01-27T03:45:53.992Z,6.1
2023-01-27T03:51:49.443Z,6
2023-01-27T03:57:24.979Z,6
2023-01-27T04:03:01.542Z,6
2023-01-27T04:08:38.081Z,6
2023-01-27T04:14:14.569Z,6
2023-01-27T04:20:03.379Z,6
2023-01-27T04:25:38.523Z,5.9
2023-01-27T04:31:14.603Z,5.9
2023-01-27T04:36:52.016Z,6
2023-01-27T04:42:34.249Z,6
2023-01-27T04:48:12.536Z,6.1
2023-01-27T04:53:51.499Z,6
2023-01-27T04:59:47.902Z,6.1
2023-01-27T05:05:26.800Z,6.1
2023-01-27T05:11:05.180Z,6.1
2023-01-27T05:16:40.001Z,6.1
2023-01-27T05:22:16.143Z,6.2
2023-01-27T05:27:51.362Z,6.1
2023-01-27T05:33:30.696Z,6.2
2023-01-27T05:39:08.575Z,6.2
2023-01-27T05:44:44.538Z,6.2
2023-01-27T05:50:20.837Z,6.2
2023-01-27T05:55:55.878Z,6.2
2023-01-27T06:01:31.407Z,6.2
2023-01-27T06:07:07.970Z,6.1
2023-01-27T06:12:43.029Z,6.1
2023-01-27T06:18:18.063Z,6.2
2023-01-27T06:23:53.078Z,6.2
2023-01-27T06:29:34.508Z,6.1
2023-01-27T06:35:15.955Z,6.2
2023-01-27T06:40:55.076Z,6.1
2023-01-27T06:46:30.816Z,6.1
2023-01-27T06:52:07.472Z,6.1
2023-01-27T06:57:45.592Z,6.1
2023-01-27T07:03:26.701Z,6.1
2023-01-27T07:09:02.933Z,6.1
2023-01-27T07:14:38.107Z,6.1
2023-01-27T07:20:19.260Z,6.1
2023-01-27T07:26:24.775Z,6
2023-01-27T07:32:11.910Z,6
2023-01-27T07:37:54.290Z,6
2023-01-27T07:43:37.319Z,6
2023-01-27T07:49:12.219Z,6
2023-01-27T07:54:48.300Z,6
2023-01-27T08:00:23.936Z,6
2023-01-27T08:06:01.933Z,6
2023-01-27T08:11:37.154Z,5.9
2023-01-27T08:17:59.095Z,5.9
2023-01-27T08:23:35.462Z,5.9
2023-01-27T08:29:14.554Z,5.5
2023-01-27T08:35:04.062Z,3.6
2023-01-27T08:40:42.659Z,3.3
2023-01-27T08:46:17.885Z,3.7
2023-01-27T08:52:14.935Z,3.9
2023-01-27T08:57:51.859Z,4
2023-01-27T09:03:27.054Z,4.2
2023-01-27T09:09:02.552Z,4.2
2023-01-27T09:14:37.571Z,4.3
2023-01-27T09:20:21.887Z,4.3
2023-01-27T09:26:04.202Z,4.4
2023-01-27T09:31:40.770Z,4.3
2023-01-27T09:37:18.779Z,4.6
2023-01-27T09:42:55.123Z,4.8
2023-01-27T09:48:31.566Z,4.8
2023-01-27T09:54:08.988Z,4.5
2023-01-27T10:00:05.246Z,4.6
2023-01-27T10:05:40.219Z,5
2023-01-27T10:11:19.282Z,5.4
2023-01-27T10:17:04.630Z,5.5
2023-01-27T10:22:45.732Z,5.8
2023-01-27T10:28:27.492Z,5.5
2023-01-27T10:34:03.326Z,5.3
2023-01-27T10:39:41.269Z,5.2
2023-01-27T10:45:19.447Z,5.1
2023-01-27T10:51:00.940Z,5.2
2023-01-27T10:56:35.871Z,5.3
2023-01-27T11:02:10.838Z,5.3
2023-01-27T11:07:46.625Z,5.4
2023-01-27T11:13:31.405Z,5.9
2023-01-27T11:19:31.729Z,5.5
2023-01-27T11:25:25.410Z,5.8
2023-01-27T11:31:08.029Z,5.9
2023-01-27T11:37:26.948Z,6.3
2023-01-27T11:43:05.861Z,6.3
2023-01-27T11:48:42.985Z,6
2023-01-27T11:54:18.710Z,5.6
2023-01-27T11:59:55.080Z,5.5
2023-01-27T12:05:32.788Z,5.8
2023-01-27T12:11:10.185Z,5.4
2023-01-27T12:16:47.503Z,6
2023-01-27T12:22:22.757Z,6.1
2023-01-27T12:27:58.114Z,5.9
2023-01-27T12:33:33.763Z,5.7
2023-01-27T12:39:09.135Z,5.3
2023-01-27T12:44:44.288Z,5.2
2023-01-27T12:50:19.846Z,5.1
2023-01-27T12:56:12.553Z,5.5
2023-01-27T13:01:47.677Z,5.3
2023-01-27T13:07:24.719Z,5.4
2023-01-27T13:13:09.434Z,5.4
2023-01-27T13:18:44.821Z,5.3
2023-01-27T13:24:24.360Z,5.4
2023-01-27T13:30:00.477Z,5.2
2023-01-27T13:35:37.270Z,5.2
2023-01-27T13:41:14.971Z,5.4
2023-01-27T13:46:54.760Z,5.8
2023-01-27T13:52:31.022Z,6.1
2023-01-27T13:58:14.034Z,6.3
2023-01-27T14:04:10.400Z,6.1
2023-01-27T14:10:08.622Z,6.1
2023-01-27T14:15:55.186Z,5.8
2023-01-27T14:21:57.877Z,5.4
2023-01-27T14:27:34.568Z,5.2
2023-01-27T14:33:13.185Z,5.4
2023-01-27T14:38:49.225Z,5.1
2023-01-27T14:44:33.583Z,4.7
2023-01-27T14:50:44.233Z,4.9
2023-01-27T14:56:22.125Z,5
2023-01-27T15:02:29.071Z,5
2023-01-27T15:08:09.822Z,5
2023-01-27T15:13:58.267Z,4.8
2023-01-27T15:19:39.058Z,5.1
2023-01-27T15:25:21.451Z,4.9
2023-01-27T15:31:29.476Z,4.6
2023-01-27T15:38:03.082Z,4.5
2023-01-27T15:43:43.612Z,4.3
2023-01-27T15:49:19.733Z,4.3
2023-01-27T15:54:55.214Z,4.3
2023-01-27T16:00:31.098Z,4.4
2023-01-27T16:06:06.205Z,4.3
2023-01-27T16:11:42.209Z,4.3
2023-01-27T16:17:17.932Z,4.3
2023-01-27T16:22:57.926Z,4.2
2023-01-27T16:28:36.182Z,4
2023-01-27T16:34:12.065Z,3.9
2023-01-27T16:39:46.786Z,4
2023-01-27T16:45:22.106Z,4.1
2023-01-27T16:51:00.984Z,3.8
2023-01-27T16:56:39.263Z,3.9
2023-01-27T17:02:14.591Z,3.9
2023-01-27T17:07:52.129Z,3.9
2023-01-27T17:13:28.155Z,3.9
2023-01-27T17:19:03.229Z,3.8
2023-01-27T17:24:41.139Z,3.9
2023-01-27T17:30:17.670Z,3.9
2023-01-27T17:35:56.646Z,4
2023-01-27T17:41:33.596Z,3.7
2023-01-27T17:47:10.217Z,3.6
2023-01-27T17:52:54.581Z,4.7
2023-01-27T17:58:30.758Z,5.3
2023-01-27T18:04:06.426Z,5.5
2023-01-27T18:10:00.152Z,5.7
2023-01-27T18:15:51.964Z,5.8
2023-01-27T18:21:55.034Z,5.9
2023-01-27T18:27:33.339Z,5.9
2023-01-27T18:33:17.273Z,6
2023-01-27T18:39:05.714Z,6
2023-01-27T18:45:00.335Z,6.1
2023-01-27T18:50:41.643Z,6.1
2023-01-27T18:56:23.133Z,6.2
2023-01-27T19:02:43.561Z,6.3
2023-01-27T19:08:19.079Z,6.3
2023-01-27T19:14:03.358Z,6.3
2023-01-27T19:19:44.022Z,6.3
2023-01-27T19:25:28.997Z,6.3
2023-01-27T19:31:04.550Z,6.3
2023-01-27T19:36:41.383Z,6.3
2023-01-27T19:42:17.857Z,6.3
2023-01-27T19:47:58.734Z,6.3
2023-01-27T19:53:34.354Z,6.3
2023-01-27T19:59:11.382Z,6.3
2023-01-27T20:04:48.928Z,6.4
2023-01-27T20:10:24.492Z,6.4
2023-01-27T20:15:59.600Z,6.5
2023-01-27T20:21:35.492Z,6.5
2023-01-27T20:27:10.787Z,6.5
2023-01-27T20:33:29.297Z,6.5
2023-01-27T20:39:09.746Z,6.5
2023-01-27T20:45:09.118Z,6.5
2023-01-27T20:51:02.154Z,6.5
2023-01-27T20:57:15.565Z,6.5
2023-01-27T21:02:51.736Z,6.6
2023-01-27T21:08:28.083Z,6.6
2023-01-27T21:14:15.183Z,6.6
2023-01-27T21:19:50.199Z,6.6
2023-01-27T21:25:29.741Z,6.6
2023-01-27T21:31:05.289Z,6.6
2023-01-27T21:36:42.717Z,6.6
2023-01-27T21:42:29.276Z,6.6
2023-01-27T21:48:36.083Z,6.6
2023-01-27T21:54:09.219Z,6.6
2023-01-27T21:59:51.208Z,6.6
2023-01-27T22:05:37.611Z,6.6
2023-01-27T22:11:12.819Z,6.5
2023-01-27T22:16:48.604Z,6.5
2023-01-27T22:22:23.860Z,6.6
2023-01-27T22:28:03.160Z,6.6
2023-01-27T22:33:38.972Z,6.6
2023-01-27T22:39:13.949Z,6.6
2023-01-27T22:45:43.132Z,6.6
2023-01-27T22:51:19.744Z,6.7
2023-01-27T22:57:15.849Z,6.7
2023-01-27T23:02:52.302Z,6.7
2023-01-27T23:08:28.520Z,6.7
2023-01-27T23:14:15.412Z,6.7
2023-01-27T23:19:59.455Z,6.6
2023-01-27T23:25:40.877Z,6.6
2023-01-27T23:31:38.297Z,6.7
2023-01-27T23:37:33.226Z,6.7
2023-01-27T23:43:08.662Z,6.6
2023-01-27T23:49:06.052Z,6.6
2023-01-27T23:54:38.927Z,6.5
